createdAt,value
2022-08-22T00:02:53.437Z,22.95
2022-08-22T00:06:24.332Z,20.63
2022-08-22T00:09:41.219Z,20.04
2022-08-22T00:12:50.584Z,20.32
2022-08-22T00:15:52.369Z,19.71
2022-08-22T00:19:14.417Z,20.23
2022-08-22T00:22:20.847Z,20.38
2022-08-22T00:25:35.144Z,20.19
2022-08-22T00:29:00.302Z,20.52
2022-08-22T00:32:02.120Z,20.24
2022-08-22T00:35:03.909Z,19.61
2022-08-22T00:38:15.271Z,20.37
2022-08-22T00:41:24.463Z,20.15
2022-08-22T00:44:29.410Z,20.52
2022-08-22T00:47:37.369Z,21.16
2022-08-22T00:50:43.909Z,20.32
2022-08-22T00:54:06.767Z,20.74
2022-08-22T00:57:23.786Z,21.02
2022-08-22T01:00:27.154Z,20.33
2022-08-22T01:03:49.675Z,20.45
2022-08-22T01:07:24.055Z,20.04
2022-08-22T01:10:51.051Z,20.37
2022-08-22T01:13:55.931Z,20.45
2022-08-22T01:17:00.834Z,20.47
2022-08-22T01:20:21.321Z,20.45
2022-08-22T01:23:41.727Z,21.03
2022-08-22T01:26:46.646Z,20.13
2022-08-22T01:29:51.232Z,20.86
2022-08-22T01:33:12.086Z,20.36
2022-08-22T01:36:16.665Z,20.96
2022-08-22T01:39:27.608Z,20.60
2022-08-22T01:42:48.016Z,20.77
2022-08-22T01:45:52.514Z,20.28
2022-08-22T01:48:57.342Z,20.27
2022-08-22T01:52:08.309Z,20.53
2022-08-22T01:55:10.110Z,20.31
2022-08-22T01:58:19.731Z,19.91
2022-08-22T02:01:24.442Z,20.13
2022-08-22T02:04:38.232Z,20.05
2022-08-22T02:07:49.114Z,20.14
2022-08-22T02:10:56.876Z,20.42
2022-08-22T02:14:14.076Z,20.28
2022-08-22T02:17:15.967Z,20.42
2022-08-22T02:20:17.901Z,21.03
2022-08-22T02:23:30.657Z,20.63
2022-08-22T02:26:38.639Z,20.37
2022-08-22T02:29:42.634Z,20.53
2022-08-22T02:32:46.358Z,20.50
2022-08-22T02:36:00.049Z,20.86
2022-08-22T02:39:07.555Z,20.55
2022-08-22T02:42:12.459Z,20.68
2022-08-22T02:45:33.379Z,20.52
2022-08-22T02:48:35.633Z,20.28
2022-08-22T02:51:56.091Z,21.29
2022-08-22T02:55:03.618Z,21.72
2022-08-22T02:58:12.042Z,20.88
2022-08-22T03:01:17.952Z,20.70
2022-08-22T03:04:22.897Z,21.33
2022-08-22T03:07:27.304Z,21.01
2022-08-22T03:10:35.696Z,21.00
2022-08-22T03:13:46.734Z,21.00
2022-08-22T03:16:55.827Z,20.39
2022-08-22T03:20:04.418Z,20.62
2022-08-22T03:23:25.413Z,20.43
2022-08-22T03:26:30.319Z,20.31
2022-08-22T03:29:40.569Z,20.39
2022-08-22T03:32:56.077Z,20.77
2022-08-22T03:36:16.342Z,21.03
2022-08-22T03:39:19.024Z,20.64
2022-08-22T03:42:25.392Z,21.47
2022-08-22T03:45:30.642Z,20.97
2022-08-22T03:48:55.796Z,21.51
2022-08-22T03:52:00.388Z,20.54
2022-08-22T03:55:02.166Z,21.34
2022-08-22T03:58:22.299Z,21.03
2022-08-22T04:01:36.146Z,20.74
2022-08-22T04:04:53.086Z,20.65
2022-08-22T04:07:54.983Z,20.48
2022-08-22T04:11:03.710Z,21.04
2022-08-22T04:14:24.366Z,20.97
2022-08-22T04:17:29.227Z,21.31
2022-08-22T04:20:50.362Z,21.83
2022-08-22T04:23:57.439Z,22.12
2022-08-22T04:27:22.548Z,21.00
2022-08-22T04:30:36.435Z,21.18
2022-08-22T04:33:45.369Z,21.52
2022-08-22T04:36:50.113Z,21.66
2022-08-22T04:40:12.253Z,20.91
2022-08-22T04:43:20.467Z,20.72
2022-08-22T04:46:32.123Z,21.01
2022-08-22T04:49:40.656Z,20.94
2022-08-22T04:52:48.530Z,21.96
2022-08-22T04:56:06.773Z,21.19
2022-08-22T04:59:11.407Z,21.10
2022-08-22T05:02:13.680Z,21.48
2022-08-22T05:05:25.734Z,21.69
2022-08-22T05:08:30.506Z,22.19
2022-08-22T05:11:32.464Z,21.42
2022-08-22T05:14:38.923Z,22.61
2022-08-22T05:17:41.176Z,22.19
2022-08-22T05:20:44.767Z,22.58
2022-08-22T05:23:55.163Z,22.45
2022-08-22T05:26:57.353Z,22.38
2022-08-22T05:30:04.380Z,21.61
2022-08-22T05:33:18.553Z,22.47
2022-08-22T05:36:31.117Z,22.19
2022-08-22T05:39:32.998Z,22.58
2022-08-22T05:42:36.737Z,22.75
2022-08-22T05:45:38.989Z,22.60
2022-08-22T05:51:55.854Z,22.25
2022-08-22T05:54:59.270Z,22.56
2022-08-22T05:58:10.821Z,22.79
2022-08-22T06:01:27.765Z,23.10
2022-08-22T06:04:53.886Z,22.79
2022-08-22T06:08:23.503Z,22.95
2022-08-22T06:11:33.678Z,23.38
2022-08-22T06:14:42.244Z,23.19
2022-08-22T06:17:45.789Z,22.77
2022-08-22T06:20:48.568Z,22.95
2022-08-22T06:23:53.224Z,23.51
2022-08-22T06:26:57.312Z,22.39
2022-08-22T06:30:00.781Z,22.80
2022-08-22T06:33:06.988Z,22.80
2022-08-22T06:36:34.019Z,23.03
2022-08-22T06:39:37.764Z,23.28
2022-08-22T06:42:41.218Z,23.07
2022-08-22T06:45:43.225Z,23.23
2022-08-22T06:48:45.263Z,24.23
2022-08-22T06:51:49.226Z,24.42
2022-08-22T06:54:52.925Z,24.26
2022-08-22T06:57:59.141Z,23.92
2022-08-22T07:01:24.892Z,23.79
2022-08-22T07:04:27.494Z,24.86
2022-08-22T07:07:29.462Z,26.02
2022-08-22T07:10:31.438Z,25.86
2022-08-22T07:13:33.783Z,25.27
2022-08-22T07:16:43.418Z,24.28
2022-08-22T07:19:59.508Z,23.88
2022-08-22T07:23:02.949Z,23.75
2022-08-22T07:26:11.163Z,24.95
2022-08-22T07:29:17.309Z,24.72
2022-08-22T07:32:20.258Z,24.20
2022-08-22T07:35:27.193Z,24.15
2022-08-22T07:38:42.875Z,24.90
2022-08-22T07:41:55.865Z,23.91
2022-08-22T07:45:07.961Z,24.37
2022-08-22T07:48:25.793Z,24.91
2022-08-22T07:51:32.090Z,24.91
2022-08-22T07:54:41.417Z,23.74
2022-08-22T07:57:47.544Z,23.51
2022-08-22T08:00:49.947Z,23.88
2022-08-22T08:03:56.242Z,24.16
2022-08-22T08:06:58.938Z,23.34
2022-08-22T08:10:04.348Z,23.73
2022-08-22T08:13:13.000Z,23.87
2022-08-22T08:16:20.576Z,24.45
2022-08-22T08:19:22.616Z,24.32
2022-08-22T08:22:25.193Z,25.49
2022-08-22T08:25:27.877Z,25.11
2022-08-22T08:28:36.304Z,25.00
2022-08-22T08:31:43.173Z,24.83
2022-08-22T08:34:47.138Z,24.84
2022-08-22T08:37:51.270Z,24.72
2022-08-22T08:40:53.111Z,24.70
2022-08-22T08:43:55.765Z,25.50
2022-08-22T08:47:16.343Z,25.69
2022-08-22T08:50:24.281Z,24.67
2022-08-22T08:53:45.319Z,25.15
2022-08-22T08:56:54.451Z,24.67
2022-08-22T09:00:14.828Z,25.01
2022-08-22T09:03:30.686Z,24.94
2022-08-22T09:06:33.223Z,26.45
2022-08-22T09:09:35.131Z,26.33
2022-08-22T09:12:36.989Z,26.66
2022-08-22T09:16:09.223Z,27.24
2022-08-22T09:19:30.865Z,26.49
2022-08-22T09:23:02.065Z,28.11
2022-08-22T09:26:20.886Z,29.25
2022-08-22T09:29:32.830Z,27.35
2022-08-22T09:32:41.782Z,27.42
2022-08-22T09:35:46.661Z,27.63
2022-08-22T09:38:55.855Z,27.76
2022-08-22T09:42:27.289Z,27.18
2022-08-22T09:45:32.158Z,26.81
2022-08-22T09:48:40.068Z,27.41
2022-08-22T09:51:54.470Z,27.47
2022-08-22T09:55:16.080Z,27.52
2022-08-22T09:58:41.807Z,26.83
2022-08-22T10:01:49.143Z,27.87
2022-08-22T10:04:54.653Z,26.78
2022-08-22T10:08:14.095Z,26.69
2022-08-22T10:11:51.918Z,27.34
2022-08-22T10:14:53.834Z,27.94
2022-08-22T10:18:03.877Z,27.76
2022-08-22T10:21:05.722Z,27.00
2022-08-22T10:24:25.497Z,27.82
2022-08-22T10:27:39.988Z,28.12
2022-08-22T10:31:01.517Z,26.86
2022-08-22T10:34:14.898Z,27.84
2022-08-22T10:37:23.718Z,27.74
2022-08-22T10:40:26.111Z,27.25
2022-08-22T10:43:31.178Z,27.17
2022-08-22T10:46:37.842Z,27.62
2022-08-22T10:49:44.780Z,27.91
2022-08-22T10:52:48.538Z,28.17
2022-08-22T10:55:50.879Z,28.24
2022-08-22T10:59:06.354Z,28.75
2022-08-22T11:02:17.791Z,28.87
2022-08-22T11:05:24.120Z,28.89
2022-08-22T11:08:34.992Z,30.15
2022-08-22T11:12:06.377Z,30.11
2022-08-22T11:15:24.195Z,29.32
2022-08-22T11:18:42.982Z,28.03
2022-08-22T11:21:59.711Z,27.73
2022-08-22T11:25:29.289Z,29.14
2022-08-22T11:28:53.345Z,28.94
2022-08-22T11:32:05.949Z,29.65
2022-08-22T11:35:18.901Z,29.12
2022-08-22T11:38:39.566Z,29.87
2022-08-22T11:41:43.094Z,30.59
2022-08-22T11:44:54.202Z,30.24
2022-08-22T11:47:59.729Z,32.06
2022-08-22T11:51:13.508Z,31.85
2022-08-22T11:54:20.571Z,32.82
2022-08-22T11:57:37.289Z,32.34
2022-08-22T12:00:56.701Z,29.59
2022-08-22T12:04:00.981Z,29.85
2022-08-22T12:07:08.190Z,29.77
2022-08-22T12:10:14.977Z,28.20
2022-08-22T12:13:20.730Z,29.04
2022-08-22T12:16:37.161Z,29.04
2022-08-22T12:20:16.267Z,28.02
2022-08-22T12:23:48.978Z,27.47
2022-08-22T12:27:11.731Z,27.49
2022-08-22T12:30:14.178Z,28.03
2022-08-22T12:33:34.914Z,28.01
2022-08-22T12:36:36.896Z,28.28
2022-08-22T12:39:40.320Z,27.82
2022-08-22T12:43:02.253Z,27.75
2022-08-22T12:46:16.567Z,28.62
2022-08-22T12:49:18.936Z,28.42
2022-08-22T12:52:31.214Z,27.55
2022-08-22T12:55:35.203Z,28.22
2022-08-22T12:58:42.837Z,28.34
2022-08-22T13:01:46.674Z,28.71
2022-08-22T13:04:50.847Z,28.62
2022-08-22T13:07:54.610Z,29.00
2022-08-22T13:10:58.401Z,28.74
2022-08-22T13:14:00.801Z,28.19
2022-08-22T13:17:10.277Z,27.96
2022-08-22T13:20:31.711Z,27.04
2022-08-22T13:23:39.592Z,26.61
2022-08-22T13:26:49.130Z,26.86
2022-08-22T13:29:53.379Z,26.73
2022-08-22T13:32:58.321Z,26.63
2022-08-22T13:36:06.713Z,27.19
2022-08-22T13:39:12.918Z,27.54
2022-08-22T13:42:27.731Z,28.14
2022-08-22T13:45:33.771Z,28.12
2022-08-22T13:48:47.055Z,27.32
2022-08-22T13:51:53.278Z,28.52
2022-08-22T13:55:14.474Z,28.78
2022-08-22T13:58:18.179Z,28.43
2022-08-22T14:01:32.369Z,28.41
2022-08-22T14:04:36.555Z,26.79
2022-08-22T14:07:45.790Z,27.09
2022-08-22T14:10:55.167Z,27.65
2022-08-22T14:14:01.195Z,27.22
2022-08-22T14:17:03.229Z,26.87
2022-08-22T14:20:12.453Z,26.84
2022-08-22T14:23:17.425Z,27.51
2022-08-22T14:26:33.037Z,27.29
2022-08-22T14:29:40.474Z,27.03
2022-08-22T14:32:45.648Z,26.44
2022-08-22T14:35:52.808Z,26.45
2022-08-22T14:38:57.276Z,25.80
2022-08-22T14:42:05.257Z,25.75
2022-08-22T14:45:15.052Z,25.31
2022-08-22T14:48:30.508Z,25.58
2022-08-22T14:51:33.762Z,26.24
2022-08-22T14:54:35.915Z,25.53
2022-08-22T14:57:41.648Z,24.96
2022-08-22T15:00:45.001Z,24.53
2022-08-22T15:03:54.682Z,25.29
2022-08-22T15:06:58.435Z,25.58
2022-08-22T15:10:03.589Z,25.78
2022-08-22T15:13:08.405Z,24.94
2022-08-22T15:16:16.640Z,25.00
2022-08-22T15:19:25.797Z,25.62
2022-08-22T15:22:29.482Z,25.08
2022-08-22T15:25:35.862Z,24.61
2022-08-22T15:28:52.655Z,24.54
2022-08-22T15:31:56.340Z,24.46
2022-08-22T15:35:06.042Z,25.08
2022-08-22T15:38:11.256Z,24.67
2022-08-22T15:41:31.544Z,24.22
2022-08-22T15:44:40.209Z,24.21
2022-08-22T15:47:50.284Z,24.67
2022-08-22T15:50:56.146Z,23.76
2022-08-22T15:54:04.066Z,23.87
2022-08-22T15:57:34.986Z,23.72
2022-08-22T16:00:43.242Z,24.04
2022-08-22T16:03:56.563Z,23.84
2022-08-22T16:07:00.436Z,23.63
2022-08-22T16:10:04.452Z,23.90
2022-08-22T16:13:25.242Z,24.17
2022-08-22T16:16:27.422Z,24.40
2022-08-22T16:19:31.150Z,24.15
2022-08-22T16:22:51.871Z,24.50
2022-08-22T16:25:53.882Z,24.61
2022-08-22T16:29:14.995Z,24.21
2022-08-22T16:32:23.304Z,23.63
2022-08-22T16:35:44.104Z,23.86
2022-08-22T16:38:49.894Z,23.98
2022-08-22T16:41:56.990Z,23.69
2022-08-22T16:45:18.961Z,23.50
2022-08-22T16:48:25.923Z,24.09
2022-08-22T16:51:27.787Z,23.84
2022-08-22T16:54:43.207Z,23.75
2022-08-22T16:58:05.762Z,23.48
2022-08-22T17:01:11.837Z,23.74
2022-08-22T17:04:19.515Z,23.94
2022-08-22T17:07:21.383Z,23.68
2022-08-22T17:10:26.256Z,23.46
2022-08-22T17:13:28.093Z,24.30
2022-08-22T17:16:52.048Z,23.63
2022-08-22T17:20:06.147Z,23.84
2022-08-22T17:23:37.539Z,23.04
2022-08-22T17:26:39.408Z,22.94
2022-08-22T17:29:44.270Z,22.11
2022-08-22T17:33:09.893Z,21.94
2022-08-22T17:36:26.506Z,22.19
2022-08-22T17:39:47.223Z,22.08
2022-08-22T17:42:55.173Z,22.88
2022-08-22T17:46:03.185Z,22.13
2022-08-22T17:49:11.146Z,22.47
2022-08-22T17:52:30.568Z,23.00
2022-08-22T17:55:34.064Z,22.85
2022-08-22T17:58:43.757Z,22.44
2022-08-22T18:01:50.379Z,22.19
2022-08-22T18:04:59.043Z,22.35
2022-08-22T18:08:37.617Z,22.23
2022-08-22T18:11:40.267Z,22.10
2022-08-22T18:14:45.185Z,22.23
2022-08-22T18:17:52.718Z,21.63
2022-08-22T18:21:02.480Z,22.16
2022-08-22T18:24:10.484Z,21.68
2022-08-22T18:27:34.687Z,21.64
2022-08-22T18:30:48.338Z,21.94
2022-08-22T18:33:52.105Z,21.46
2022-08-22T18:37:01.185Z,21.62
2022-08-22T18:40:05.198Z,21.18
2022-08-22T18:43:13.287Z,21.25
2022-08-22T18:46:51.660Z,21.48
2022-08-22T18:49:55.043Z,21.90
2022-08-22T18:52:57.798Z,22.09
2022-08-22T18:56:01.495Z,21.55
2022-08-22T18:59:21.986Z,21.49
2022-08-22T19:02:35.952Z,21.72
2022-08-22T19:05:40.867Z,21.97
2022-08-22T19:09:01.427Z,21.96
2022-08-22T19:12:07.444Z,21.49
2022-08-22T19:15:25.059Z,21.53
2022-08-22T19:18:30.700Z,22.50
2022-08-22T19:21:52.077Z,22.50
2022-08-22T19:25:09.299Z,21.84
2022-08-22T19:28:21.166Z,22.11
2022-08-22T19:31:23.342Z,22.06
2022-08-22T19:34:25.134Z,22.03
2022-08-22T19:37:32.457Z,22.38
2022-08-22T19:40:44.951Z,22.22
2022-08-22T19:43:46.768Z,21.81
2022-08-22T19:47:00.914Z,21.40
2022-08-22T19:50:18.079Z,21.83
2022-08-22T19:53:34.741Z,21.29
2022-08-22T19:56:50.538Z,21.37
2022-08-22T20:00:00.129Z,21.32
2022-08-22T20:03:10.668Z,21.27
2022-08-22T20:06:40.719Z,21.40
2022-08-22T20:09:51.207Z,21.22
2022-08-22T20:13:02.067Z,21.88
2022-08-22T20:16:07.589Z,22.06
2022-08-22T20:19:09.875Z,21.06
2022-08-22T20:22:38.890Z,21.44
2022-08-22T20:25:44.235Z,21.80
2022-08-22T20:28:47.439Z,21.71
2022-08-22T20:31:49.864Z,22.59
2022-08-22T20:34:54.503Z,22.17
2022-08-22T20:38:08.673Z,21.98
2022-08-22T20:41:24.186Z,21.42
2022-08-22T20:44:30.893Z,22.16
2022-08-22T20:47:40.713Z,21.44
2022-08-22T20:50:43.236Z,21.24
2022-08-22T20:53:55.892Z,21.57
2022-08-22T20:56:57.715Z,21.78
2022-08-22T21:00:09.429Z,21.63
2022-08-22T21:03:29.605Z,21.16
2022-08-22T21:06:34.910Z,21.93
2022-08-22T21:09:55.518Z,21.68
2022-08-22T21:13:01.104Z,21.60
2022-08-22T21:16:13.770Z,22.17
2022-08-22T21:19:25.879Z,22.38
2022-08-22T21:22:28.952Z,22.66
2022-08-22T21:25:30.954Z,21.72
2022-08-22T21:28:37.221Z,21.57
2022-08-22T21:31:46.516Z,21.91
2022-08-22T21:34:48.477Z,21.60
2022-08-22T21:37:50.379Z,21.35
2022-08-22T21:40:52.257Z,21.36
2022-08-22T21:43:54.237Z,21.34
2022-08-22T21:46:56.468Z,20.97
2022-08-22T21:50:07.674Z,21.57
2022-08-22T21:53:12.064Z,21.12
2022-08-22T21:56:16.686Z,21.05
2022-08-22T21:59:25.940Z,21.81
2022-08-22T22:02:47.724Z,20.87
2022-08-22T22:05:51.479Z,21.28
2022-08-22T22:08:53.340Z,21.27
2022-08-22T22:11:55.220Z,21.31
2022-08-22T22:14:57.049Z,21.41
2022-08-22T22:17:59.004Z,21.67
2022-08-22T22:21:02.551Z,21.82
2022-08-22T22:24:04.381Z,21.53
2022-08-22T22:27:06.248Z,21.55
2022-08-22T22:30:08.296Z,21.76
2022-08-22T22:33:10.443Z,21.60
2022-08-22T22:36:15.014Z,20.71
2022-08-22T22:39:16.846Z,20.99
2022-08-22T22:42:18.764Z,21.34
2022-08-22T22:45:20.894Z,21.93
2022-08-22T22:48:24.471Z,21.61
2022-08-22T22:51:26.679Z,21.75
2022-08-22T22:54:28.507Z,21.00
2022-08-22T22:57:31.733Z,21.39
2022-08-22T23:00:43.403Z,20.89
2022-08-22T23:03:45.449Z,21.06
2022-08-22T23:06:47.901Z,21.68
2022-08-22T23:09:51.192Z,21.79
2022-08-22T23:12:55.422Z,21.42
2022-08-22T23:15:57.242Z,21.18
2022-08-22T23:18:59.053Z,21.96
2022-08-22T23:22:00.962Z,21.57
2022-08-22T23:25:02.968Z,21.48
2022-08-22T23:28:04.870Z,21.42
2022-08-22T23:31:10.755Z,21.48
2022-08-22T23:34:13.458Z,20.53
2022-08-22T23:37:16.965Z,20.50
2022-08-22T23:40:18.828Z,21.17
2022-08-22T23:43:20.785Z,21.45
2022-08-22T23:46:23.365Z,21.30
2022-08-22T23:49:25.603Z,21.25
2022-08-22T23:52:27.464Z,21.37
2022-08-22T23:55:29.671Z,21.73
2022-08-22T23:58:33.537Z,21.98
